createdAt,value
2022-07-26T00:00:15.297Z,128
2022-07-26T00:01:21.027Z,125
2022-07-26T00:02:31.278Z,125
2022-07-26T00:05:12.118Z,123
2022-07-26T00:06:19.437Z,131
2022-07-26T00:07:23.929Z,130
2022-07-26T00:08:28.982Z,123
2022-07-26T00:09:33.500Z,121
2022-07-26T00:10:38.361Z,115
2022-07-26T00:11:43.557Z,119
2022-07-26T00:12:47.988Z,124
2022-07-26T00:13:52.824Z,119
2022-07-26T00:15:01.670Z,125
2022-07-26T00:16:07.786Z,125
2022-07-26T00:17:12.574Z,122
2022-07-26T00:18:17.433Z,121
2022-07-26T00:19:22.381Z,122
2022-07-26T00:20:27.489Z,126
2022-07-26T00:21:35.088Z,118
2022-07-26T00:22:39.732Z,118
2022-07-26T00:23:44.265Z,113
2022-07-26T00:24:48.854Z,119
2022-07-26T00:25:58.042Z,120
2022-07-26T00:27:03.628Z,127
2022-07-26T00:28:08.241Z,114
2022-07-26T00:29:13.300Z,116
2022-07-26T00:30:18.663Z,116
2022-07-26T00:31:24.277Z,117
2022-07-26T00:32:29.900Z,116
2022-07-26T00:33:34.820Z,115
2022-07-26T00:34:39.973Z,117
2022-07-26T00:35:44.677Z,119
2022-07-26T00:36:53.884Z,117
2022-07-26T00:37:59.289Z,118
2022-07-26T00:39:05.291Z,119
2022-07-26T00:40:09.949Z,115
2022-07-26T00:41:15.125Z,115
2022-07-26T00:42:20.409Z,111
2022-07-26T00:43:25.224Z,111
2022-07-26T00:44:30.351Z,113
2022-07-26T00:45:42.580Z,113
2022-07-26T00:46:50.165Z,122
2022-07-26T00:47:56.096Z,120
2022-07-26T00:49:02.162Z,116
2022-07-26T00:50:06.902Z,116
2022-07-26T00:51:12.040Z,111
2022-07-26T00:52:17.167Z,109
2022-07-26T00:53:21.837Z,115
2022-07-26T00:54:26.625Z,113
2022-07-26T00:55:31.661Z,116
2022-07-26T00:56:36.212Z,115
2022-07-26T00:57:40.962Z,111
2022-07-26T00:58:45.895Z,114
2022-07-26T00:59:55.821Z,112
2022-07-26T01:01:00.494Z,118
2022-07-26T01:02:05.802Z,120
2022-07-26T01:03:10.934Z,120
2022-07-26T01:04:15.653Z,125
2022-07-26T01:05:20.509Z,119
2022-07-26T01:06:29.441Z,122
2022-07-26T01:07:34.350Z,117
2022-07-26T01:08:38.896Z,123
2022-07-26T01:09:43.290Z,123
2022-07-26T01:10:48.445Z,126
2022-07-26T01:11:54.005Z,115
2022-07-26T01:12:58.726Z,120
2022-07-26T01:14:08.121Z,126
2022-07-26T01:15:12.872Z,123
2022-07-26T01:16:17.527Z,122
2022-07-26T01:17:22.429Z,123
2022-07-26T01:18:26.974Z,131
2022-07-26T01:19:31.560Z,118
2022-07-26T01:20:36.077Z,118
2022-07-26T01:21:40.725Z,117
2022-07-26T01:22:45.585Z,112
2022-07-26T01:23:51.082Z,112
2022-07-26T01:24:55.585Z,109
2022-07-26T01:26:00.370Z,116
2022-07-26T01:27:05.242Z,117
2022-07-26T01:28:10.173Z,111
2022-07-26T01:29:14.810Z,118
2022-07-26T01:30:20.026Z,120
2022-07-26T01:31:24.763Z,118
2022-07-26T01:32:29.282Z,119
2022-07-26T01:33:34.064Z,123
2022-07-26T01:34:39.179Z,118
2022-07-26T01:35:44.618Z,120
2022-07-26T01:36:50.057Z,116
2022-07-26T01:37:54.417Z,114
2022-07-26T01:38:58.922Z,124
2022-07-26T01:40:03.537Z,116
2022-07-26T01:41:12.775Z,122
2022-07-26T01:42:22.253Z,120
2022-07-26T01:43:32.078Z,121
2022-07-26T01:44:36.625Z,128
2022-07-26T01:45:41.264Z,122
2022-07-26T01:46:46.173Z,126
2022-07-26T01:47:51.337Z,121
2022-07-26T01:49:01.020Z,123
2022-07-26T01:50:27.769Z,126
2022-07-26T01:51:33.694Z,121
2022-07-26T01:52:39.781Z,116
2022-07-26T01:53:44.670Z,121
2022-07-26T01:54:50.482Z,113
2022-07-26T01:55:56.330Z,112
2022-07-26T01:57:01.087Z,111
2022-07-26T01:58:06.953Z,110
2022-07-26T01:59:11.945Z,112
2022-07-26T02:00:21.993Z,110
2022-07-26T02:01:37.804Z,112
2022-07-26T02:03:38.693Z,116
2022-07-26T02:04:44.293Z,115
2022-07-26T02:05:54.420Z,107
2022-07-26T02:06:59.514Z,112
2022-07-26T02:08:03.933Z,107
2022-07-26T02:09:11.611Z,107
2022-07-26T02:10:15.058Z,106
2022-07-26T02:11:20.438Z,107
2022-07-26T02:12:24.938Z,109
2022-07-26T02:13:29.806Z,110
2022-07-26T02:14:34.717Z,111
2022-07-26T02:15:39.774Z,108
2022-07-26T02:16:49.398Z,118
2022-07-26T02:17:54.229Z,114
2022-07-26T02:18:58.923Z,112
2022-07-26T02:20:04.550Z,106
2022-07-26T02:21:09.846Z,114
2022-07-26T02:22:15.545Z,111
2022-07-26T02:23:19.902Z,107
2022-07-26T02:24:24.338Z,110
2022-07-26T02:25:29.329Z,108
2022-07-26T02:26:33.832Z,106
2022-07-26T02:27:38.930Z,111
2022-07-26T02:28:44.549Z,106
2022-07-26T02:29:49.317Z,112
2022-07-26T02:30:54.353Z,114
2022-07-26T02:31:59.386Z,106
2022-07-26T02:33:08.681Z,113
2022-07-26T02:34:17.964Z,110
2022-07-26T02:35:27.227Z,103
2022-07-26T02:36:31.838Z,110
2022-07-26T02:37:36.569Z,106
2022-07-26T02:38:45.444Z,107
2022-07-26T02:39:54.618Z,106
2022-07-26T02:40:59.554Z,109
2022-07-26T02:42:04.859Z,113
2022-07-26T02:43:14.434Z,109
2022-07-26T02:44:25.298Z,108
2022-07-26T02:45:29.874Z,105
2022-07-26T02:46:35.297Z,106
2022-07-26T02:47:40.366Z,110
2022-07-26T02:48:48.188Z,110
2022-07-26T02:49:52.962Z,110
2022-07-26T02:50:57.439Z,109
2022-07-26T02:52:06.426Z,110
2022-07-26T02:53:11.495Z,110
2022-07-26T02:54:16.377Z,117
2022-07-26T02:55:21.573Z,108
2022-07-26T02:57:29.746Z,116
2022-07-26T02:58:48.154Z,112
2022-07-26T02:59:52.578Z,118
2022-07-26T03:00:59.966Z,111
2022-07-26T03:02:04.434Z,119
2022-07-26T03:03:08.912Z,120
2022-07-26T03:05:17.885Z,121
2022-07-26T03:06:22.749Z,119
2022-07-26T03:07:32.577Z,118
2022-07-26T03:08:37.898Z,113
2022-07-26T03:09:42.718Z,117
2022-07-26T03:10:47.098Z,111
2022-07-26T03:11:51.837Z,112
2022-07-26T03:12:56.626Z,99
2022-07-26T03:14:02.270Z,97
2022-07-26T03:15:09.741Z,91
2022-07-26T03:16:16.190Z,78
2022-07-26T03:17:19.602Z,82
2022-07-26T03:18:24.521Z,74
2022-07-26T03:19:29.478Z,62
2022-07-26T03:20:34.085Z,62
2022-07-26T03:21:38.522Z,56
2022-07-26T03:22:43.309Z,61
2022-07-26T03:23:47.872Z,49
2022-07-26T03:24:53.530Z,48
2022-07-26T03:25:59.177Z,48
2022-07-26T03:27:04.228Z,49
2022-07-26T03:28:09.554Z,48
2022-07-26T03:29:15.189Z,48
2022-07-26T03:30:25.323Z,43
2022-07-26T03:31:29.903Z,45
2022-07-26T03:32:34.889Z,47
2022-07-26T03:33:39.086Z,47
2022-07-26T03:34:44.074Z,42
2022-07-26T03:35:49.066Z,41
2022-07-26T03:36:56.310Z,40
2022-07-26T03:38:01.023Z,33
2022-07-26T03:39:06.126Z,40
2022-07-26T03:40:11.203Z,38
2022-07-26T03:41:16.543Z,40
2022-07-26T03:42:21.754Z,41
2022-07-26T03:43:27.031Z,43
2022-07-26T03:44:38.653Z,41
2022-07-26T03:45:46.653Z,44
2022-07-26T03:46:51.494Z,41
2022-07-26T03:47:56.231Z,42
2022-07-26T03:49:01.452Z,42
2022-07-26T03:50:08.198Z,43
2022-07-26T03:51:17.769Z,40
2022-07-26T03:52:23.047Z,53
2022-07-26T03:53:27.737Z,39
2022-07-26T03:54:32.805Z,44
2022-07-26T03:55:38.910Z,43
2022-07-26T03:56:49.350Z,47
2022-07-26T03:57:54.861Z,44
2022-07-26T03:58:59.842Z,48
2022-07-26T04:00:15.156Z,41
2022-07-26T04:01:24.949Z,46
2022-07-26T04:02:29.972Z,49
2022-07-26T04:03:35.407Z,50
2022-07-26T04:04:41.787Z,63
2022-07-26T04:05:48.750Z,67
2022-07-26T04:06:51.994Z,69
2022-07-26T04:07:57.723Z,75
2022-07-26T04:09:06.993Z,75
2022-07-26T04:10:11.777Z,75
2022-07-26T04:11:16.130Z,77
2022-07-26T04:12:25.511Z,73
2022-07-26T04:13:30.750Z,74
2022-07-26T04:14:38.037Z,79
2022-07-26T04:15:42.709Z,76
2022-07-26T04:16:47.569Z,69
2022-07-26T04:17:52.487Z,68
2022-07-26T04:18:58.324Z,61
2022-07-26T04:20:03.479Z,63
2022-07-26T04:21:08.673Z,65
2022-07-26T04:22:17.810Z,67
2022-07-26T04:23:22.589Z,75
2022-07-26T04:24:27.406Z,82
2022-07-26T04:25:38.400Z,84
2022-07-26T04:26:38.713Z,92
2022-07-26T04:27:43.205Z,86
2022-07-26T04:28:47.693Z,82
2022-07-26T04:29:52.341Z,81
2022-07-26T04:30:57.210Z,86
2022-07-26T04:32:02.790Z,89
2022-07-26T04:33:07.365Z,88
2022-07-26T04:34:13.007Z,82
2022-07-26T04:35:17.809Z,87
2022-07-26T04:36:23.981Z,86
2022-07-26T04:37:29.024Z,87
2022-07-26T04:38:33.829Z,76
2022-07-26T04:39:38.383Z,69
2022-07-26T04:40:42.988Z,63
2022-07-26T04:41:47.813Z,62
2022-07-26T04:42:52.902Z,58
2022-07-26T04:43:57.797Z,47
2022-07-26T04:45:07.593Z,59
2022-07-26T04:46:07.957Z,67
2022-07-26T04:47:12.390Z,75
2022-07-26T04:48:21.925Z,87
2022-07-26T04:49:26.926Z,90
2022-07-26T04:50:31.934Z,101
2022-07-26T04:51:37.149Z,107
2022-07-26T04:52:42.322Z,111
2022-07-26T04:53:46.936Z,112
2022-07-26T04:54:51.822Z,117
2022-07-26T04:55:57.465Z,104
2022-07-26T04:57:07.101Z,90
2022-07-26T04:58:12.536Z,90
2022-07-26T04:59:21.626Z,83
2022-07-26T05:00:26.293Z,86
2022-07-26T05:01:31.534Z,79
2022-07-26T05:02:36.611Z,80
2022-07-26T05:03:41.392Z,84
2022-07-26T05:04:46.378Z,83
2022-07-26T05:05:52.274Z,79
2022-07-26T05:06:57.135Z,82
2022-07-26T05:08:02.429Z,85
2022-07-26T05:09:07.234Z,82
2022-07-26T05:10:12.728Z,80
2022-07-26T05:11:17.605Z,78
2022-07-26T05:12:22.277Z,77
2022-07-26T05:13:32.533Z,81
2022-07-26T05:14:37.258Z,85
2022-07-26T05:15:42.892Z,87
2022-07-26T05:16:49.367Z,97
2022-07-26T05:17:54.045Z,95
2022-07-26T05:18:58.574Z,106
2022-07-26T05:20:04.006Z,104
2022-07-26T05:21:09.347Z,103
2022-07-26T05:22:15.143Z,102
2022-07-26T05:23:20.192Z,106
2022-07-26T05:24:26.862Z,107
2022-07-26T05:25:32.249Z,115
2022-07-26T05:26:37.717Z,108
2022-07-26T05:27:43.149Z,120
2022-07-26T05:28:49.708Z,110
2022-07-26T05:29:54.801Z,119
2022-07-26T05:31:00.479Z,121
2022-07-26T05:32:05.966Z,121
2022-07-26T05:33:10.912Z,127
2022-07-26T05:34:16.683Z,128
2022-07-26T05:35:22.985Z,126
2022-07-26T05:36:28.181Z,124
2022-07-26T05:37:32.540Z,129
2022-07-26T05:38:37.281Z,124
2022-07-26T05:39:42.177Z,120
2022-07-26T05:40:50.632Z,122
2022-07-26T05:41:57.468Z,124
2022-07-26T05:43:02.473Z,129
2022-07-26T05:44:07.480Z,124
2022-07-26T05:45:11.698Z,126
2022-07-26T05:46:21.367Z,124
2022-07-26T05:47:30.677Z,122
2022-07-26T05:48:35.920Z,120
2022-07-26T05:49:41.369Z,121
2022-07-26T05:50:50.713Z,118
2022-07-26T05:52:00.916Z,119
2022-07-26T05:53:02.164Z,125
2022-07-26T05:54:07.585Z,125
2022-07-26T05:55:12.000Z,124
2022-07-26T05:56:17.581Z,127
2022-07-26T05:57:23.277Z,131
2022-07-26T05:58:28.489Z,131
2022-07-26T05:59:33.229Z,125
2022-07-26T06:00:38.650Z,128
2022-07-26T06:01:48.185Z,129
2022-07-26T06:02:53.106Z,130
2022-07-26T06:03:57.862Z,131
2022-07-26T06:05:03.096Z,131
2022-07-26T06:06:08.040Z,132
2022-07-26T06:07:13.281Z,136
2022-07-26T06:09:26.286Z,133
2022-07-26T06:10:30.820Z,133
2022-07-26T06:11:39.800Z,134
2022-07-26T06:12:44.473Z,135
2022-07-26T06:13:51.454Z,131
2022-07-26T06:14:53.592Z,134
2022-07-26T06:16:01.093Z,122
2022-07-26T06:17:06.527Z,126
2022-07-26T06:18:12.881Z,109
2022-07-26T06:19:17.790Z,115
2022-07-26T06:20:22.817Z,112
2022-07-26T06:21:27.397Z,114
2022-07-26T06:22:32.713Z,118
2022-07-26T06:23:38.217Z,121
2022-07-26T06:24:52.452Z,123
2022-07-26T06:25:56.711Z,125
2022-07-26T06:27:04.842Z,121
2022-07-26T06:28:07.386Z,120
2022-07-26T06:29:12.332Z,119
2022-07-26T06:30:18.124Z,126
2022-07-26T06:31:24.097Z,128
2022-07-26T06:32:30.803Z,124
2022-07-26T06:33:36.192Z,119
2022-07-26T06:34:41.356Z,116
2022-07-26T06:35:47.489Z,124
2022-07-26T06:36:51.845Z,121
2022-07-26T06:37:56.565Z,119
2022-07-26T06:39:12.554Z,120
2022-07-26T06:40:21.134Z,122
2022-07-26T06:41:26.147Z,113
2022-07-26T06:42:36.869Z,124
2022-07-26T06:43:41.656Z,118
2022-07-26T06:44:46.443Z,122
2022-07-26T06:45:57.480Z,123
2022-07-26T06:47:14.424Z,120
2022-07-26T06:48:18.915Z,120
2022-07-26T06:49:23.974Z,119
2022-07-26T06:50:28.431Z,124
2022-07-26T06:51:40.044Z,122
2022-07-26T06:52:47.709Z,123
2022-07-26T06:53:50.809Z,123
2022-07-26T06:55:01.973Z,123
2022-07-26T06:56:07.521Z,114
2022-07-26T06:57:18.525Z,121
2022-07-26T06:58:25.660Z,117
2022-07-26T06:59:30.116Z,125
2022-07-26T07:02:42.448Z,116
2022-07-26T08:48:00.974Z,113
2022-07-26T08:48:51.297Z,122
2022-07-26T14:13:15.443Z,94
2022-07-26T14:15:12.949Z,89
2022-07-26T14:16:57.540Z,100
2022-07-26T14:18:04.188Z,96
2022-07-26T14:19:10.136Z,94
2022-07-26T14:25:17.847Z,84
2022-07-26T14:28:20.068Z,83
2022-07-26T14:29:49.839Z,85
2022-07-26T14:32:40.833Z,65
2022-07-26T14:33:49.296Z,70
2022-07-26T14:34:59.643Z,55
2022-07-26T14:36:16.712Z,50
2022-07-26T14:37:42.268Z,51
2022-07-26T14:38:30.017Z,56
2022-07-26T14:39:35.320Z,53
2022-07-26T14:40:40.543Z,51
2022-07-26T14:41:46.153Z,56
2022-07-26T14:42:51.319Z,53
2022-07-26T14:43:57.959Z,57
2022-07-26T14:45:05.679Z,62
2022-07-26T14:46:10.939Z,61
2022-07-26T14:47:22.621Z,63
2022-07-26T14:48:52.139Z,55
2022-07-26T14:49:46.851Z,50
2022-07-26T14:51:25.748Z,51
2022-07-26T14:52:30.788Z,50
2022-07-26T14:53:42.745Z,55
2022-07-26T14:55:25.187Z,49
2022-07-26T14:56:46.518Z,56
2022-07-26T14:58:21.461Z,58
2022-07-26T15:00:08.193Z,52
2022-07-26T15:02:58.341Z,51
2022-07-26T15:04:56.943Z,42
2022-07-26T15:21:42.469Z,43
2022-07-26T15:50:18.299Z,46
2022-07-26T15:51:57.738Z,58
2022-07-26T15:54:00.944Z,55
2022-07-26T15:56:56.595Z,48
2022-07-26T16:23:56.777Z,36
2022-07-26T16:25:56.203Z,34
2022-07-26T16:27:26.113Z,29
2022-07-26T16:39:20.379Z,47
2022-07-26T16:41:07.698Z,52
2022-07-26T16:45:16.647Z,58
2022-07-26T16:47:43.551Z,41
2022-07-26T16:58:26.216Z,35
2022-07-26T17:03:19.479Z,43
2022-07-26T17:08:44.499Z,36
2022-07-26T17:09:57.163Z,43
2022-07-26T17:13:26.653Z,47
2022-07-26T17:15:55.177Z,38
2022-07-26T17:17:00.981Z,41
2022-07-26T17:19:43.938Z,40
2022-07-26T17:20:59.963Z,40
2022-07-26T17:22:55.659Z,36
2022-07-26T17:25:47.413Z,47
2022-07-26T17:27:26.043Z,50
2022-07-26T17:28:48.032Z,43
2022-07-26T17:29:54.703Z,47
2022-07-26T17:31:02.239Z,43
2022-07-26T17:32:38.918Z,33
2022-07-26T17:33:45.594Z,44
2022-07-26T17:34:50.656Z,37
2022-07-26T17:35:55.418Z,33
2022-07-26T17:38:52.765Z,43
2022-07-26T17:40:44.411Z,27
2022-07-26T17:41:49.987Z,32
2022-07-26T17:43:08.406Z,34
2022-07-26T17:44:13.755Z,33
2022-07-26T17:45:18.673Z,41
2022-07-26T17:46:48.823Z,36
2022-07-26T17:47:53.906Z,41
2022-07-26T17:50:35.056Z,46
2022-07-26T17:51:25.622Z,53
2022-07-26T17:55:23.046Z,55
2022-07-26T17:58:28.541Z,56
2022-07-26T17:59:37.144Z,47
2022-07-26T18:01:35.023Z,55
2022-07-26T18:02:40.965Z,67
2022-07-26T18:04:08.168Z,72
2022-07-26T18:10:09.462Z,71
2022-07-26T18:13:29.289Z,82
2022-07-26T18:14:41.139Z,82
2022-07-26T18:15:49.983Z,89
2022-07-26T18:16:59.860Z,92
2022-07-26T18:18:04.573Z,100
2022-07-26T18:19:09.411Z,112
2022-07-26T18:20:27.611Z,110
2022-07-26T18:21:33.531Z,108
2022-07-26T18:22:57.180Z,112
2022-07-26T18:27:59.219Z,100
2022-07-26T18:31:19.096Z,106
2022-07-26T18:32:24.654Z,95
2022-07-26T18:34:29.867Z,97
2022-07-26T18:36:02.107Z,103
2022-07-26T18:38:58.154Z,103
2022-07-26T18:40:35.195Z,107
2022-07-26T18:42:33.376Z,97
2022-07-26T19:11:37.582Z,94
2022-07-26T19:29:41.198Z,64
2022-07-26T19:30:47.317Z,67
2022-07-26T19:33:39.179Z,73
2022-07-26T19:51:09.390Z,64
2022-07-26T19:52:37.557Z,77
2022-07-26T19:53:59.675Z,60
2022-07-26T19:55:26.214Z,72
2022-07-26T19:56:33.648Z,61
2022-07-26T19:57:39.863Z,54
2022-07-26T19:58:58.849Z,56
2022-07-26T20:00:04.085Z,59
2022-07-26T20:01:15.872Z,52
2022-07-26T20:02:21.178Z,62
2022-07-26T20:04:38.514Z,70
2022-07-26T20:05:42.587Z,60
2022-07-26T20:06:50.900Z,78
2022-07-26T20:07:55.824Z,81
2022-07-26T20:09:06.371Z,66
2022-07-26T20:10:21.408Z,68
2022-07-26T20:11:28.343Z,71
2022-07-26T20:12:33.690Z,80
2022-07-26T20:13:56.555Z,86
2022-07-26T20:15:08.599Z,92
2022-07-26T20:16:13.778Z,77
2022-07-26T20:17:19.560Z,81
2022-07-26T20:18:30.911Z,86
2022-07-26T20:19:36.483Z,86
2022-07-26T20:23:56.904Z,75
2022-07-26T20:25:02.114Z,78
2022-07-26T20:26:07.752Z,93
2022-07-26T20:27:18.369Z,82
2022-07-26T20:28:27.030Z,81
2022-07-26T20:29:33.175Z,73
2022-07-26T20:30:44.054Z,83
2022-07-26T20:31:49.980Z,77
2022-07-26T20:32:59.193Z,78
2022-07-26T20:34:04.011Z,67
2022-07-26T20:35:14.965Z,77
2022-07-26T20:36:25.979Z,67
2022-07-26T20:37:48.215Z,82
2022-07-26T20:38:54.351Z,65
2022-07-26T20:40:00.286Z,62
2022-07-26T20:41:09.546Z,72
2022-07-26T20:42:21.312Z,67
2022-07-26T20:43:29.236Z,56
2022-07-26T20:44:34.716Z,69
2022-07-26T20:45:45.587Z,70
2022-07-26T20:46:50.554Z,70
2022-07-26T20:47:55.390Z,80
2022-07-26T20:49:00.693Z,79
2022-07-26T20:50:05.738Z,68
2022-07-26T20:51:13.982Z,65
2022-07-26T20:52:39.225Z,78
2022-07-26T20:53:44.438Z,63
2022-07-26T20:56:17.375Z,81
2022-07-26T20:57:27.114Z,80
2022-07-26T20:58:32.376Z,74
2022-07-26T20:59:52.390Z,73
2022-07-26T21:01:05.884Z,70
2022-07-26T21:02:31.527Z,67
2022-07-26T21:03:53.294Z,64
2022-07-26T21:05:07.155Z,49
2022-07-26T21:06:12.234Z,65
2022-07-26T21:07:18.559Z,69
2022-07-26T21:08:22.978Z,59
2022-07-26T21:09:29.138Z,60
2022-07-26T21:10:33.830Z,64
2022-07-26T21:11:38.443Z,61
2022-07-26T21:12:57.896Z,55
2022-07-26T21:14:02.874Z,50
2022-07-26T21:15:09.718Z,47
2022-07-26T21:16:15.300Z,49
2022-07-26T21:17:32.931Z,49
2022-07-26T21:18:57.663Z,54
2022-07-26T21:20:24.571Z,54
2022-07-26T21:21:39.482Z,55
2022-07-26T21:22:44.147Z,60
2022-07-26T21:24:22.863Z,59
2022-07-26T21:25:28.295Z,55
2022-07-26T21:26:32.743Z,55
2022-07-26T21:28:02.967Z,57
2022-07-26T21:29:08.713Z,59
2022-07-26T21:30:15.172Z,56
2022-07-26T21:31:28.824Z,56
2022-07-26T21:32:34.318Z,58
2022-07-26T21:33:40.323Z,57
2022-07-26T21:34:46.207Z,58
2022-07-26T21:35:53.962Z,55
2022-07-26T21:37:00.083Z,57
2022-07-26T21:38:05.520Z,51
2022-07-26T21:39:43.444Z,53
2022-07-26T21:40:51.203Z,51
2022-07-26T21:41:56.558Z,52
2022-07-26T21:43:02.206Z,55
2022-07-26T21:44:33.515Z,50
2022-07-26T21:45:39.962Z,54
2022-07-26T21:46:44.225Z,52
2022-07-26T21:47:52.859Z,53
2022-07-26T21:48:59.756Z,53
2022-07-26T21:50:05.932Z,56
2022-07-26T21:51:11.006Z,51
2022-07-26T21:52:16.070Z,49
2022-07-26T21:53:25.450Z,49
2022-07-26T21:54:31.275Z,51
2022-07-26T21:55:36.071Z,45
2022-07-26T21:56:40.715Z,45
2022-07-26T21:57:46.839Z,43
2022-07-26T21:58:52.142Z,39
2022-07-26T21:59:56.966Z,37
2022-07-26T22:01:06.102Z,35
2022-07-26T22:02:09.422Z,33
2022-07-26T22:03:14.588Z,27
2022-07-26T22:04:19.238Z,42
2022-07-26T22:05:24.388Z,44
2022-07-26T22:06:35.063Z,38
2022-07-26T22:07:40.013Z,42
2022-07-26T22:08:44.947Z,44
2022-07-26T22:09:53.242Z,43
2022-07-26T22:10:57.887Z,44
2022-07-26T22:12:02.918Z,39
2022-07-26T22:13:23.094Z,43
2022-07-26T22:14:28.191Z,41
2022-07-26T22:15:37.035Z,45
2022-07-26T22:16:41.754Z,44
2022-07-26T22:17:46.726Z,46
2022-07-26T22:18:52.310Z,50
2022-07-26T22:19:57.576Z,49
2022-07-26T22:21:03.106Z,48
2022-07-26T22:22:09.656Z,43
2022-07-26T22:23:18.596Z,50
2022-07-26T22:24:23.442Z,48
2022-07-26T22:25:29.175Z,45
2022-07-26T22:26:34.959Z,45
2022-07-26T22:27:39.655Z,48
2022-07-26T22:28:44.522Z,44
2022-07-26T22:29:49.176Z,44
2022-07-26T22:30:55.055Z,49
2022-07-26T22:32:01.268Z,43
2022-07-26T22:33:06.401Z,35
2022-07-26T22:34:11.759Z,34
2022-07-26T22:35:17.640Z,29
2022-07-26T22:36:22.866Z,33
2022-07-26T22:37:28.639Z,41
2022-07-26T22:38:33.580Z,30
2022-07-26T22:39:39.167Z,35
2022-07-26T22:40:45.296Z,38
2022-07-26T22:42:14.071Z,32
2022-07-26T22:43:00.868Z,43
2022-07-26T22:44:05.484Z,40
2022-07-26T22:45:14.191Z,45
2022-07-26T22:46:18.711Z,44
2022-07-26T22:47:24.055Z,49
2022-07-26T22:48:29.166Z,51
2022-07-26T22:49:39.833Z,50
2022-07-26T22:50:45.177Z,53
2022-07-26T22:51:52.058Z,54
2022-07-26T22:52:57.071Z,51
2022-07-26T22:54:10.962Z,59
2022-07-26T22:55:15.923Z,62
2022-07-26T22:56:21.535Z,58
2022-07-26T22:57:26.626Z,63
2022-07-26T22:58:32.314Z,64
2022-07-26T22:59:38.203Z,59
2022-07-26T23:00:43.548Z,59
2022-07-26T23:01:49.408Z,64
2022-07-26T23:02:55.657Z,64
2022-07-26T23:04:01.297Z,65
2022-07-26T23:05:08.307Z,59
2022-07-26T23:06:20.204Z,69
2022-07-26T23:07:19.858Z,68
2022-07-26T23:09:34.523Z,76
2022-07-26T23:10:39.958Z,70
2022-07-26T23:11:48.946Z,79
2022-07-26T23:12:53.935Z,76
2022-07-26T23:14:02.683Z,75
2022-07-26T23:15:08.540Z,64
2022-07-26T23:16:13.350Z,68
2022-07-26T23:17:19.460Z,67
2022-07-26T23:18:29.541Z,59
2022-07-26T23:19:39.012Z,64
2022-07-26T23:20:43.659Z,62
2022-07-26T23:21:53.435Z,55
2022-07-26T23:23:01.551Z,60
2022-07-26T23:24:21.943Z,57
2022-07-26T23:25:26.771Z,61
2022-07-26T23:26:32.054Z,63
2022-07-26T23:27:37.312Z,62
2022-07-26T23:28:48.033Z,61
2022-07-26T23:29:52.671Z,57
2022-07-26T23:30:58.410Z,64
2022-07-26T23:32:04.079Z,63
2022-07-26T23:33:09.591Z,64
2022-07-26T23:34:18.258Z,64
2022-07-26T23:35:23.402Z,58
2022-07-26T23:36:29.984Z,62
2022-07-26T23:37:35.103Z,56
2022-07-26T23:38:39.471Z,56
2022-07-26T23:39:45.159Z,64
2022-07-26T23:40:50.188Z,67
2022-07-26T23:41:57.044Z,61
2022-07-26T23:43:09.447Z,64
2022-07-26T23:44:16.587Z,71
2022-07-26T23:45:23.227Z,72
2022-07-26T23:46:28.436Z,74
2022-07-26T23:47:41.730Z,71
2022-07-26T23:48:46.592Z,83
2022-07-26T23:49:53.010Z,77
2022-07-26T23:51:00.328Z,76
2022-07-26T23:52:05.483Z,81
2022-07-26T23:53:10.578Z,85
2022-07-26T23:54:15.375Z,83
2022-07-26T23:55:20.972Z,88
2022-07-26T23:56:25.962Z,96
2022-07-26T23:57:31.033Z,97
2022-07-26T23:58:36.731Z,105
2022-07-26T23:59:42.494Z,90
